sensor_id;sensor_type;location;lat;lon;timestamp;temperature;humidity
32600;DHT22;19277;51.778;7.912;2022-11-20T00:03:31;22.40;71.70
32600;DHT22;19277;51.778;7.912;2022-11-20T00:06:01;22.40;71.70
32600;DHT22;19277;51.778;7.912;2022-11-20T00:08:27;22.40;71.70
32600;DHT22;19277;51.778;7.912;2022-11-20T00:10:52;22.40;71.60
32600;DHT22;19277;51.778;7.912;2022-11-20T00:13:18;22.40;71.60
32600;DHT22;19277;51.778;7.912;2022-11-20T00:15:44;22.40;71.60
32600;DHT22;19277;51.778;7.912;2022-11-20T00:18:09;22.40;71.60
32600;DHT22;19277;51.778;7.912;2022-11-20T00:20:35;22.40;71.60
32600;DHT22;19277;51.778;7.912;2022-11-20T00:23:00;22.50;71.70
32600;DHT22;19277;51.778;7.912;2022-11-20T00:25:26;22.40;71.60
32600;DHT22;19277;51.778;7.912;2022-11-20T00:27:52;22.50;71.60
32600;DHT22;19277;51.778;7.912;2022-11-20T00:30:17;22.50;71.60
32600;DHT22;19277;51.778;7.912;2022-11-20T00:32:43;22.40;71.60
32600;DHT22;19277;51.778;7.912;2022-11-20T00:35:09;22.50;71.60
32600;DHT22;19277;51.778;7.912;2022-11-20T00:37:34;22.50;71.60
32600;DHT22;19277;51.778;7.912;2022-11-20T00:40:00;22.50;71.60
32600;DHT22;19277;51.778;7.912;2022-11-20T00:42:25;22.50;71.50
32600;DHT22;19277;51.778;7.912;2022-11-20T00:44:51;22.50;71.40
32600;DHT22;19277;51.778;7.912;2022-11-20T00:47:17;22.50;71.50
32600;DHT22;19277;51.778;7.912;2022-11-20T00:49:42;22.50;71.60
32600;DHT22;19277;51.778;7.912;2022-11-20T00:52:08;22.50;71.70
32600;DHT22;19277;51.778;7.912;2022-11-20T00:54:34;22.50;71.70
32600;DHT22;19277;51.778;7.912;2022-11-20T00:57:00;22.50;71.70
32600;DHT22;19277;51.778;7.912;2022-11-20T00:59:25;22.50;71.70
32600;DHT22;19277;51.778;7.912;2022-11-20T01:01:51;22.50;72.20
32600;DHT22;19277;51.778;7.912;2022-11-20T01:04:16;22.50;71.60
32600;DHT22;19277;51.778;7.912;2022-11-20T01:06:42;22.50;71.60
32600;DHT22;19277;51.778;7.912;2022-11-20T01:09:13;22.60;71.70
32600;DHT22;19277;51.778;7.912;2022-11-20T01:11:41;22.60;71.70
32600;DHT22;19277;51.778;7.912;2022-11-20T01:14:11;22.50;71.60
32600;DHT22;19277;51.778;7.912;2022-11-20T01:16:39;22.60;71.60
32600;DHT22;19277;51.778;7.912;2022-11-20T01:19:09;22.60;71.60
32600;DHT22;19277;51.778;7.912;2022-11-20T01:21:37;22.60;72.00
32600;DHT22;19277;51.778;7.912;2022-11-20T01:24:05;22.60;71.60
32600;DHT22;19277;51.778;7.912;2022-11-20T01:26:34;22.60;71.60
32600;DHT22;19277;51.778;7.912;2022-11-20T01:29:00;22.60;71.50
32600;DHT22;19277;51.778;7.912;2022-11-20T01:31:31;22.60;71.50
32600;DHT22;19277;51.778;7.912;2022-11-20T01:34:00;22.60;71.40
32600;DHT22;19277;51.778;7.912;2022-11-20T01:36:28;22.60;71.40
32600;DHT22;19277;51.778;7.912;2022-11-20T01:38:56;22.60;71.30
32600;DHT22;19277;51.778;7.912;2022-11-20T01:41:22;22.60;71.30
32600;DHT22;19277;51.778;7.912;2022-11-20T01:44:07;22.60;71.20
32600;DHT22;19277;51.778;7.912;2022-11-20T01:46:37;22.60;71.10
32600;DHT22;19277;51.778;7.912;2022-11-20T01:49:23;22.70;71.20
32600;DHT22;19277;51.778;7.912;2022-11-20T01:51:56;22.70;71.10
32600;DHT22;19277;51.778;7.912;2022-11-20T01:54:33;22.70;71.10
32600;DHT22;19277;51.778;7.912;2022-11-20T01:57:00;22.60;71.10
32600;DHT22;19277;51.778;7.912;2022-11-20T01:59:28;22.60;71.20
32600;DHT22;19277;51.778;7.912;2022-11-20T02:01:54;22.70;71.90
32600;DHT22;19277;51.778;7.912;2022-11-20T02:04:20;22.60;71.40
32600;DHT22;19277;51.778;7.912;2022-11-20T02:06:49;22.70;71.50
32600;DHT22;19277;51.778;7.912;2022-11-20T02:09:15;22.60;71.40
32600;DHT22;19277;51.778;7.912;2022-11-20T02:11:41;22.70;71.50
32600;DHT22;19277;51.778;7.912;2022-11-20T02:14:08;22.60;71.40
32600;DHT22;19277;51.778;7.912;2022-11-20T02:16:39;22.70;71.40
32600;DHT22;19277;51.778;7.912;2022-11-20T02:19:08;22.60;71.40
32600;DHT22;19277;51.778;7.912;2022-11-20T02:24:15;22.70;71.50
32600;DHT22;19277;51.778;7.912;2022-11-20T02:26:57;22.60;71.40
32600;DHT22;19277;51.778;7.912;2022-11-20T02:29:34;22.70;71.50
32600;DHT22;19277;51.778;7.912;2022-11-20T02:32:02;22.70;71.40
32600;DHT22;19277;51.778;7.912;2022-11-20T02:34:28;22.70;71.40
32600;DHT22;19277;51.778;7.912;2022-11-20T02:36:54;22.70;71.40
32600;DHT22;19277;51.778;7.912;2022-11-20T02:39:20;22.70;71.40
32600;DHT22;19277;51.778;7.912;2022-11-20T02:41:47;22.70;71.40
32600;DHT22;19277;51.778;7.912;2022-11-20T02:44:13;22.70;71.50
32600;DHT22;19277;51.778;7.912;2022-11-20T02:46:38;22.70;71.60
32600;DHT22;19277;51.778;7.912;2022-11-20T02:49:05;22.70;71.50
32600;DHT22;19277;51.778;7.912;2022-11-20T02:51:31;22.70;71.40
32600;DHT22;19277;51.778;7.912;2022-11-20T02:53:57;22.70;71.40
32600;DHT22;19277;51.778;7.912;2022-11-20T02:56:22;22.70;71.40
32600;DHT22;19277;51.778;7.912;2022-11-20T02:58:48;22.70;71.40
32600;DHT22;19277;51.778;7.912;2022-11-20T03:01:14;22.70;71.40
32600;DHT22;19277;51.778;7.912;2022-11-20T03:03:39;22.70;71.40
32600;DHT22;19277;51.778;7.912;2022-11-20T03:06:05;22.70;71.40
32600;DHT22;19277;51.778;7.912;2022-11-20T03:08:31;22.70;71.30
32600;DHT22;19277;51.778;7.912;2022-11-20T03:10:57;22.70;71.30
32600;DHT22;19277;51.778;7.912;2022-11-20T03:13:26;22.70;71.30
32600;DHT22;19277;51.778;7.912;2022-11-20T03:15:52;22.70;71.30
32600;DHT22;19277;51.778;7.912;2022-11-20T03:18:17;22.70;71.20
32600;DHT22;19277;51.778;7.912;2022-11-20T03:20:43;22.70;71.20
32600;DHT22;19277;51.778;7.912;2022-11-20T03:23:09;22.70;71.20
32600;DHT22;19277;51.778;7.912;2022-11-20T03:25:34;22.70;71.10
32600;DHT22;19277;51.778;7.912;2022-11-20T03:28:00;22.70;71.20
32600;DHT22;19277;51.778;7.912;2022-11-20T03:30:26;22.70;71.20
32600;DHT22;19277;51.778;7.912;2022-11-20T03:32:53;22.70;71.10
32600;DHT22;19277;51.778;7.912;2022-11-20T03:35:19;22.70;71.10
32600;DHT22;19277;51.778;7.912;2022-11-20T03:37:44;22.70;71.10
32600;DHT22;19277;51.778;7.912;2022-11-20T03:40:11;22.70;71.20
32600;DHT22;19277;51.778;7.912;2022-11-20T03:42:37;22.70;71.10
32600;DHT22;19277;51.778;7.912;2022-11-20T03:45:15;22.70;71.20
32600;DHT22;19277;51.778;7.912;2022-11-20T03:47:41;22.70;71.20
32600;DHT22;19277;51.778;7.912;2022-11-20T03:50:08;22.80;71.20
32600;DHT22;19277;51.778;7.912;2022-11-20T03:52:34;22.70;71.20
32600;DHT22;19277;51.778;7.912;2022-11-20T03:54:59;22.70;71.40
32600;DHT22;19277;51.778;7.912;2022-11-20T03:57:25;22.70;71.30
32600;DHT22;19277;51.778;7.912;2022-11-20T03:59:50;22.70;71.30
32600;DHT22;19277;51.778;7.912;2022-11-20T04:02:16;22.80;71.40
32600;DHT22;19277;51.778;7.912;2022-11-20T04:04:42;22.70;71.40
32600;DHT22;19277;51.778;7.912;2022-11-20T04:07:07;22.70;71.40
32600;DHT22;19277;51.778;7.912;2022-11-20T04:09:33;22.80;71.50
32600;DHT22;19277;51.778;7.912;2022-11-20T04:11:59;22.80;71.50
32600;DHT22;19277;51.778;7.912;2022-11-20T04:14:24;22.70;71.40
32600;DHT22;19277;51.778;7.912;2022-11-20T04:16:50;22.80;71.40
32600;DHT22;19277;51.778;7.912;2022-11-20T04:19:16;22.80;71.50
32600;DHT22;19277;51.778;7.912;2022-11-20T04:21:43;22.70;71.40
32600;DHT22;19277;51.778;7.912;2022-11-20T04:24:09;22.80;71.50
32600;DHT22;19277;51.778;7.912;2022-11-20T04:26:36;22.80;71.40
32600;DHT22;19277;51.778;7.912;2022-11-20T04:29:02;22.80;71.40
32600;DHT22;19277;51.778;7.912;2022-11-20T04:31:30;22.80;71.50
32600;DHT22;19277;51.778;7.912;2022-11-20T04:34:03;22.80;71.50
32600;DHT22;19277;51.778;7.912;2022-11-20T04:36:29;22.80;71.50
32600;DHT22;19277;51.778;7.912;2022-11-20T04:39:03;22.80;71.40
32600;DHT22;19277;51.778;7.912;2022-11-20T04:41:32;22.80;71.60
32600;DHT22;19277;51.778;7.912;2022-11-20T04:43:59;22.80;71.50
32600;DHT22;19277;51.778;7.912;2022-11-20T04:46:29;22.80;71.50
32600;DHT22;19277;51.778;7.912;2022-11-20T04:48:55;22.80;71.50
32600;DHT22;19277;51.778;7.912;2022-11-20T04:51:21;22.80;71.50
32600;DHT22;19277;51.778;7.912;2022-11-20T04:53:46;22.80;71.50
32600;DHT22;19277;51.778;7.912;2022-11-20T04:56:12;22.80;71.40
32600;DHT22;19277;51.778;7.912;2022-11-20T04:58:39;22.80;71.40
32600;DHT22;19277;51.778;7.912;2022-11-20T05:01:31;22.80;71.30
32600;DHT22;19277;51.778;7.912;2022-11-20T05:03:57;22.80;71.40
32600;DHT22;19277;51.778;7.912;2022-11-20T05:06:23;22.80;71.30
32600;DHT22;19277;51.778;7.912;2022-11-20T05:08:49;22.80;71.40
32600;DHT22;19277;51.778;7.912;2022-11-20T05:11:17;22.80;71.40
32600;DHT22;19277;51.778;7.912;2022-11-20T05:13:43;22.80;71.40
32600;DHT22;19277;51.778;7.912;2022-11-20T05:16:11;22.80;71.40
32600;DHT22;19277;51.778;7.912;2022-11-20T05:18:38;22.80;71.40
32600;DHT22;19277;51.778;7.912;2022-11-20T05:21:04;22.80;71.40
32600;DHT22;19277;51.778;7.912;2022-11-20T05:23:31;22.80;71.40
32600;DHT22;19277;51.778;7.912;2022-11-20T05:25:57;22.80;71.40
32600;DHT22;19277;51.778;7.912;2022-11-20T05:28:24;22.80;71.40
32600;DHT22;19277;51.778;7.912;2022-11-20T05:30:50;22.80;71.30
32600;DHT22;19277;51.778;7.912;2022-11-20T05:33:16;22.80;71.30
32600;DHT22;19277;51.778;7.912;2022-11-20T05:35:41;22.80;71.30
32600;DHT22;19277;51.778;7.912;2022-11-20T05:38:07;22.80;71.30
32600;DHT22;19277;51.778;7.912;2022-11-20T05:40:33;22.80;71.30
32600;DHT22;19277;51.778;7.912;2022-11-20T05:42:59;22.80;71.30
32600;DHT22;19277;51.778;7.912;2022-11-20T05:45:25;22.80;71.40
32600;DHT22;19277;51.778;7.912;2022-11-20T05:47:51;22.80;71.40
32600;DHT22;19277;51.778;7.912;2022-11-20T05:50:17;22.80;71.40
32600;DHT22;19277;51.778;7.912;2022-11-20T05:52:42;22.80;71.40
32600;DHT22;19277;51.778;7.912;2022-11-20T05:55:08;22.80;71.40
32600;DHT22;19277;51.778;7.912;2022-11-20T05:57:34;22.80;71.40
32600;DHT22;19277;51.778;7.912;2022-11-20T05:59:59;22.80;71.30
32600;DHT22;19277;51.778;7.912;2022-11-20T06:02:25;22.80;71.40
32600;DHT22;19277;51.778;7.912;2022-11-20T06:04:51;22.80;71.40
32600;DHT22;19277;51.778;7.912;2022-11-20T06:07:16;22.80;71.50
32600;DHT22;19277;51.778;7.912;2022-11-20T06:09:42;22.80;71.50
32600;DHT22;19277;51.778;7.912;2022-11-20T06:12:07;22.80;71.60
32600;DHT22;19277;51.778;7.912;2022-11-20T06:14:33;22.80;71.60
32600;DHT22;19277;51.778;7.912;2022-11-20T06:16:59;22.80;71.60
32600;DHT22;19277;51.778;7.912;2022-11-20T06:19:25;22.80;71.70
32600;DHT22;19277;51.778;7.912;2022-11-20T06:21:50;22.80;71.70
32600;DHT22;19277;51.778;7.912;2022-11-20T06:24:16;22.80;71.80
32600;DHT22;19277;51.778;7.912;2022-11-20T06:26:43;22.80;71.80
32600;DHT22;19277;51.778;7.912;2022-11-20T06:29:08;22.80;71.80
32600;DHT22;19277;51.778;7.912;2022-11-20T06:31:34;22.80;71.90
32600;DHT22;19277;51.778;7.912;2022-11-20T06:34:05;22.80;71.90
32600;DHT22;19277;51.778;7.912;2022-11-20T06:36:32;22.80;71.90
32600;DHT22;19277;51.778;7.912;2022-11-20T06:38:58;22.80;72.00
32600;DHT22;19277;51.778;7.912;2022-11-20T06:41:24;22.80;71.90
32600;DHT22;19277;51.778;7.912;2022-11-20T06:43:50;22.80;72.00
32600;DHT22;19277;51.778;7.912;2022-11-20T06:46:17;22.80;71.90
32600;DHT22;19277;51.778;7.912;2022-11-20T06:48:43;22.80;72.20
32600;DHT22;19277;51.778;7.912;2022-11-20T06:51:09;22.80;72.20
32600;DHT22;19277;51.778;7.912;2022-11-20T06:53:35;22.80;72.20
32600;DHT22;19277;51.778;7.912;2022-11-20T06:56:01;22.80;72.10
32600;DHT22;19277;51.778;7.912;2022-11-20T06:58:28;22.80;72.10
32600;DHT22;19277;51.778;7.912;2022-11-20T07:00:58;22.80;72.10
32600;DHT22;19277;51.778;7.912;2022-11-20T07:03:23;22.80;72.10
32600;DHT22;19277;51.778;7.912;2022-11-20T07:05:49;22.80;72.10
32600;DHT22;19277;51.778;7.912;2022-11-20T07:08:15;22.80;72.10
32600;DHT22;19277;51.778;7.912;2022-11-20T07:10:40;22.80;72.10
32600;DHT22;19277;51.778;7.912;2022-11-20T07:13:06;22.80;72.10
32600;DHT22;19277;51.778;7.912;2022-11-20T07:15:32;22.80;72.20
32600;DHT22;19277;51.778;7.912;2022-11-20T07:18:01;22.80;72.20
32600;DHT22;19277;51.778;7.912;2022-11-20T07:20:27;22.80;72.20
32600;DHT22;19277;51.778;7.912;2022-11-20T07:22:57;22.80;72.20
32600;DHT22;19277;51.778;7.912;2022-11-20T07:25:23;22.80;72.20
32600;DHT22;19277;51.778;7.912;2022-11-20T07:27:49;22.80;72.10
32600;DHT22;19277;51.778;7.912;2022-11-20T07:30:18;22.80;72.00
32600;DHT22;19277;51.778;7.912;2022-11-20T07:32:50;22.80;71.90
32600;DHT22;19277;51.778;7.912;2022-11-20T07:35:16;22.80;71.90
32600;DHT22;19277;51.778;7.912;2022-11-20T07:37:41;22.80;71.80
32600;DHT22;19277;51.778;7.912;2022-11-20T07:40:07;22.80;71.80
32600;DHT22;19277;51.778;7.912;2022-11-20T07:42:33;22.80;71.80
32600;DHT22;19277;51.778;7.912;2022-11-20T07:44:58;22.80;71.70
32600;DHT22;19277;51.778;7.912;2022-11-20T07:47:24;22.80;71.70
32600;DHT22;19277;51.778;7.912;2022-11-20T07:49:50;22.80;72.20
32600;DHT22;19277;51.778;7.912;2022-11-20T07:52:15;22.80;71.70
32600;DHT22;19277;51.778;7.912;2022-11-20T07:54:41;22.80;71.80
32600;DHT22;19277;51.778;7.912;2022-11-20T07:57:08;22.80;71.80
32600;DHT22;19277;51.778;7.912;2022-11-20T07:59:34;22.80;71.90
32600;DHT22;19277;51.778;7.912;2022-11-20T08:01:59;22.80;71.90
32600;DHT22;19277;51.778;7.912;2022-11-20T08:04:25;22.80;71.90
32600;DHT22;19277;51.778;7.912;2022-11-20T08:06:52;22.80;71.90
32600;DHT22;19277;51.778;7.912;2022-11-20T08:09:18;22.90;72.10
32600;DHT22;19277;51.778;7.912;2022-11-20T08:11:43;22.90;72.00
32600;DHT22;19277;51.778;7.912;2022-11-20T08:14:27;22.90;72.00
32600;DHT22;19277;51.778;7.912;2022-11-20T08:16:53;22.90;72.00
32600;DHT22;19277;51.778;7.912;2022-11-20T08:19:19;22.90;72.00
32600;DHT22;19277;51.778;7.912;2022-11-20T08:21:45;22.90;72.00
32600;DHT22;19277;51.778;7.912;2022-11-20T08:24:11;22.90;71.90
32600;DHT22;19277;51.778;7.912;2022-11-20T08:26:38;22.90;71.90
32600;DHT22;19277;51.778;7.912;2022-11-20T08:29:04;22.90;71.90
32600;DHT22;19277;51.778;7.912;2022-11-20T08:31:30;22.90;72.40
32600;DHT22;19277;51.778;7.912;2022-11-20T08:33:56;22.90;71.80
32600;DHT22;19277;51.778;7.912;2022-11-20T08:36:23;22.90;71.90
32600;DHT22;19277;51.778;7.912;2022-11-20T08:38:54;22.90;71.90
32600;DHT22;19277;51.778;7.912;2022-11-20T08:41:20;22.90;71.90
32600;DHT22;19277;51.778;7.912;2022-11-20T08:44:00;22.90;72.00
32600;DHT22;19277;51.778;7.912;2022-11-20T08:46:37;22.90;72.10
32600;DHT22;19277;51.778;7.912;2022-11-20T08:49:05;22.90;72.00
32600;DHT22;19277;51.778;7.912;2022-11-20T08:51:31;22.90;72.00
32600;DHT22;19277;51.778;7.912;2022-11-20T08:53:57;22.90;72.00
32600;DHT22;19277;51.778;7.912;2022-11-20T08:56:22;22.90;72.00
32600;DHT22;19277;51.778;7.912;2022-11-20T08:58:50;22.90;72.20
32600;DHT22;19277;51.778;7.912;2022-11-20T09:01:16;22.90;72.50
32600;DHT22;19277;51.778;7.912;2022-11-20T09:03:42;22.90;72.50
32600;DHT22;19277;51.778;7.912;2022-11-20T09:06:08;22.90;72.50
32600;DHT22;19277;51.778;7.912;2022-11-20T09:08:34;22.90;72.40
32600;DHT22;19277;51.778;7.912;2022-11-20T09:11:01;22.90;72.40
32600;DHT22;19277;51.778;7.912;2022-11-20T09:13:28;22.90;72.50
32600;DHT22;19277;51.778;7.912;2022-11-20T09:15:55;22.90;72.50
32600;DHT22;19277;51.778;7.912;2022-11-20T09:18:22;22.90;72.50
32600;DHT22;19277;51.778;7.912;2022-11-20T09:20:48;22.90;72.50
32600;DHT22;19277;51.778;7.912;2022-11-20T09:23:14;22.90;72.50
32600;DHT22;19277;51.778;7.912;2022-11-20T09:25:40;22.90;72.60
32600;DHT22;19277;51.778;7.912;2022-11-20T09:28:06;23.00;72.70
32600;DHT22;19277;51.778;7.912;2022-11-20T09:30:31;22.90;72.70
32600;DHT22;19277;51.778;7.912;2022-11-20T09:32:57;22.90;72.70
32600;DHT22;19277;51.778;7.912;2022-11-20T09:35:22;23.00;72.70
32600;DHT22;19277;51.778;7.912;2022-11-20T09:37:48;23.00;72.70
32600;DHT22;19277;51.778;7.912;2022-11-20T09:40:22;22.90;72.70
32600;DHT22;19277;51.778;7.912;2022-11-20T09:51:28;22.90;72.50
32600;DHT22;19277;51.778;7.912;2022-11-20T09:54:13;23.00;72.30
32600;DHT22;19277;51.778;7.912;2022-11-20T09:56:43;23.00;72.20
32600;DHT22;19277;51.778;7.912;2022-11-20T10:02:25;23.00;72.00
32600;DHT22;19277;51.778;7.912;2022-11-20T10:05:17;23.00;71.90
32600;DHT22;19277;51.778;7.912;2022-11-20T10:07:48;23.00;71.90
32600;DHT22;19277;51.778;7.912;2022-11-20T10:16:09;23.00;71.70
32600;DHT22;19277;51.778;7.912;2022-11-20T10:30:13;23.00;71.60
32600;DHT22;19277;51.778;7.912;2022-11-20T10:32:43;23.00;71.60
32600;DHT22;19277;51.778;7.912;2022-11-20T10:38:00;23.00;71.60
32600;DHT22;19277;51.778;7.912;2022-11-20T10:40:38;23.00;71.60
32600;DHT22;19277;51.778;7.912;2022-11-20T10:48:16;23.00;71.50
32600;DHT22;19277;51.778;7.912;2022-11-20T10:56:16;23.00;71.40
32600;DHT22;19277;51.778;7.912;2022-11-20T11:01:26;23.00;71.40
32600;DHT22;19277;51.778;7.912;2022-11-20T11:03:53;23.00;71.30
32600;DHT22;19277;51.778;7.912;2022-11-20T11:06:43;23.00;71.30
32600;DHT22;19277;51.778;7.912;2022-11-20T11:09:16;23.00;71.30
32600;DHT22;19277;51.778;7.912;2022-11-20T11:11:43;23.00;71.20
32600;DHT22;19277;51.778;7.912;2022-11-20T11:14:11;23.10;71.30
32600;DHT22;19277;51.778;7.912;2022-11-20T11:16:59;23.00;71.20
32600;DHT22;19277;51.778;7.912;2022-11-20T11:19:24;23.00;71.20
32600;DHT22;19277;51.778;7.912;2022-11-20T11:21:56;23.00;71.20
32600;DHT22;19277;51.778;7.912;2022-11-20T11:29:23;23.00;71.20
32600;DHT22;19277;51.778;7.912;2022-11-20T11:31:49;23.00;71.10
32600;DHT22;19277;51.778;7.912;2022-11-20T11:34:16;23.00;71.20
32600;DHT22;19277;51.778;7.912;2022-11-20T11:36:55;23.10;71.60
32600;DHT22;19277;51.778;7.912;2022-11-20T11:39:21;23.10;71.80
32600;DHT22;19277;51.778;7.912;2022-11-20T11:41:48;23.10;71.90
32600;DHT22;19277;51.778;7.912;2022-11-20T11:44:20;23.10;72.00
32600;DHT22;19277;51.778;7.912;2022-11-20T11:47:10;23.10;72.20
32600;DHT22;19277;51.778;7.912;2022-11-20T11:49:36;23.10;72.90
32600;DHT22;19277;51.778;7.912;2022-11-20T11:52:14;23.10;72.40
32600;DHT22;19277;51.778;7.912;2022-11-20T11:54:53;23.20;72.60
32600;DHT22;19277;51.778;7.912;2022-11-20T11:57:28;23.20;72.40
32600;DHT22;19277;51.778;7.912;2022-11-20T12:00:05;23.20;71.70
32600;DHT22;19277;51.778;7.912;2022-11-20T12:05:32;23.30;71.60
32600;DHT22;19277;51.778;7.912;2022-11-20T12:08:21;23.30;71.60
32600;DHT22;19277;51.778;7.912;2022-11-20T12:16:14;23.30;71.60
32600;DHT22;19277;51.778;7.912;2022-11-20T12:18:42;23.30;71.80
32600;DHT22;19277;51.778;7.912;2022-11-20T12:21:25;23.30;72.00
32600;DHT22;19277;51.778;7.912;2022-11-20T12:30:07;23.20;72.10
32600;DHT22;19277;51.778;7.912;2022-11-20T12:38:42;23.30;72.70
32600;DHT22;19277;51.778;7.912;2022-11-20T12:53:05;23.40;73.70
32600;DHT22;19277;51.778;7.912;2022-11-20T13:06:48;23.30;74.20
32600;DHT22;19277;51.778;7.912;2022-11-20T13:09:18;23.30;74.00
32600;DHT22;19277;51.778;7.912;2022-11-20T13:12:13;23.30;74.10
32600;DHT22;19277;51.778;7.912;2022-11-20T13:17:51;23.20;74.90
32600;DHT22;19277;51.778;7.912;2022-11-20T13:20:19;23.20;74.80
32600;DHT22;19277;51.778;7.912;2022-11-20T13:22:51;23.20;74.80
32600;DHT22;19277;51.778;7.912;2022-11-20T13:25:34;23.10;74.60
32600;DHT22;19277;51.778;7.912;2022-11-20T13:28:04;23.20;74.30
32600;DHT22;19277;51.778;7.912;2022-11-20T13:30:30;23.10;74.00
32600;DHT22;19277;51.778;7.912;2022-11-20T13:33:02;23.10;73.90
32600;DHT22;19277;51.778;7.912;2022-11-20T13:35:32;23.10;73.80
32600;DHT22;19277;51.778;7.912;2022-11-20T13:38:05;23.10;73.70
32600;DHT22;19277;51.778;7.912;2022-11-20T13:40:32;23.00;73.50
32600;DHT22;19277;51.778;7.912;2022-11-20T13:43:10;23.00;73.90
32600;DHT22;19277;51.778;7.912;2022-11-20T13:45:40;23.00;74.20
32600;DHT22;19277;51.778;7.912;2022-11-20T13:48:23;23.10;74.40
32600;DHT22;19277;51.778;7.912;2022-11-20T13:51:02;23.00;74.40
32600;DHT22;19277;51.778;7.912;2022-11-20T13:54:14;23.10;74.40
32600;DHT22;19277;51.778;7.912;2022-11-20T14:02:00;23.10;74.40
32600;DHT22;19277;51.778;7.912;2022-11-20T14:04:29;23.10;74.80
32600;DHT22;19277;51.778;7.912;2022-11-20T14:06:56;23.00;74.20
32600;DHT22;19277;51.778;7.912;2022-11-20T14:09:30;23.00;74.20
32600;DHT22;19277;51.778;7.912;2022-11-20T14:11:56;23.00;74.20
32600;DHT22;19277;51.778;7.912;2022-11-20T14:14:27;23.00;74.40
32600;DHT22;19277;51.778;7.912;2022-11-20T14:19:32;23.00;74.40
32600;DHT22;19277;51.778;7.912;2022-11-20T14:22:20;23.00;74.40
32600;DHT22;19277;51.778;7.912;2022-11-20T14:24:47;23.00;74.40
32600;DHT22;19277;51.778;7.912;2022-11-20T14:27:18;23.00;74.40
32600;DHT22;19277;51.778;7.912;2022-11-20T14:29:46;23.00;74.40
32600;DHT22;19277;51.778;7.912;2022-11-20T14:32:15;22.90;74.30
32600;DHT22;19277;51.778;7.912;2022-11-20T14:34:44;23.00;74.40
32600;DHT22;19277;51.778;7.912;2022-11-20T14:37:13;23.00;74.30
32600;DHT22;19277;51.778;7.912;2022-11-20T14:39:49;23.00;74.20
32600;DHT22;19277;51.778;7.912;2022-11-20T14:42:18;22.90;74.00
32600;DHT22;19277;51.778;7.912;2022-11-20T14:44:44;22.90;74.00
32600;DHT22;19277;51.778;7.912;2022-11-20T14:47:13;22.90;74.00
32600;DHT22;19277;51.778;7.912;2022-11-20T14:49:40;22.90;74.10
32600;DHT22;19277;51.778;7.912;2022-11-20T14:52:19;22.90;74.30
32600;DHT22;19277;51.778;7.912;2022-11-20T14:54:57;22.90;74.40
32600;DHT22;19277;51.778;7.912;2022-11-20T14:57:34;22.90;74.30
32600;DHT22;19277;51.778;7.912;2022-11-20T15:00:20;22.90;74.30
32600;DHT22;19277;51.778;7.912;2022-11-20T15:02:48;22.90;74.30
32600;DHT22;19277;51.778;7.912;2022-11-20T15:05:15;23.00;74.30
32600;DHT22;19277;51.778;7.912;2022-11-20T15:07:46;22.90;74.10
32600;DHT22;19277;51.778;7.912;2022-11-20T15:10:28;23.00;74.10
32600;DHT22;19277;51.778;7.912;2022-11-20T15:12:55;22.90;73.90
32600;DHT22;19277;51.778;7.912;2022-11-20T15:15:31;22.90;73.90
32600;DHT22;19277;51.778;7.912;2022-11-20T15:17:58;22.90;73.80
32600;DHT22;19277;51.778;7.912;2022-11-20T15:20:27;23.00;73.80
32600;DHT22;19277;51.778;7.912;2022-11-20T15:22:54;22.90;73.60
32600;DHT22;19277;51.778;7.912;2022-11-20T15:25:19;22.90;73.60
32600;DHT22;19277;51.778;7.912;2022-11-20T15:27:47;22.90;73.40
32600;DHT22;19277;51.778;7.912;2022-11-20T15:30:14;23.00;73.30
32600;DHT22;19277;51.778;7.912;2022-11-20T15:32:41;23.00;73.10
32600;DHT22;19277;51.778;7.912;2022-11-20T15:35:07;23.00;73.10
32600;DHT22;19277;51.778;7.912;2022-11-20T15:37:33;23.00;73.00
32600;DHT22;19277;51.778;7.912;2022-11-20T15:39:58;23.00;72.80
32600;DHT22;19277;51.778;7.912;2022-11-20T15:42:24;23.00;72.70
32600;DHT22;19277;51.778;7.912;2022-11-20T15:44:50;23.00;72.70
32600;DHT22;19277;51.778;7.912;2022-11-20T15:47:15;23.00;72.70
32600;DHT22;19277;51.778;7.912;2022-11-20T15:49:42;23.00;72.80
32600;DHT22;19277;51.778;7.912;2022-11-20T15:52:15;23.00;73.00
32600;DHT22;19277;51.778;7.912;2022-11-20T15:54:41;23.00;72.90
32600;DHT22;19277;51.778;7.912;2022-11-20T15:57:07;23.00;72.90
32600;DHT22;19277;51.778;7.912;2022-11-20T15:59:32;23.00;73.50
32600;DHT22;19277;51.778;7.912;2022-11-20T16:01:58;23.00;74.10
32600;DHT22;19277;51.778;7.912;2022-11-20T16:04:24;22.90;73.90
32600;DHT22;19277;51.778;7.912;2022-11-20T16:06:50;23.00;74.00
32600;DHT22;19277;51.778;7.912;2022-11-20T16:09:15;23.00;74.00
32600;DHT22;19277;51.778;7.912;2022-11-20T16:11:41;23.00;74.00
32600;DHT22;19277;51.778;7.912;2022-11-20T16:14:10;23.00;74.00
32600;DHT22;19277;51.778;7.912;2022-11-20T16:16:54;23.00;74.00
32600;DHT22;19277;51.778;7.912;2022-11-20T16:19:19;23.00;74.00
32600;DHT22;19277;51.778;7.912;2022-11-20T16:21:45;23.00;73.90
32600;DHT22;19277;51.778;7.912;2022-11-20T16:24:12;23.00;74.00
32600;DHT22;19277;51.778;7.912;2022-11-20T16:26:39;23.00;74.00
32600;DHT22;19277;51.778;7.912;2022-11-20T16:29:06;23.00;74.00
32600;DHT22;19277;51.778;7.912;2022-11-20T16:31:32;23.00;74.00
32600;DHT22;19277;51.778;7.912;2022-11-20T16:34:00;23.00;74.60
32600;DHT22;19277;51.778;7.912;2022-11-20T16:36:27;23.00;74.10
32600;DHT22;19277;51.778;7.912;2022-11-20T16:38:54;23.00;74.20
32600;DHT22;19277;51.778;7.912;2022-11-20T16:41:20;23.00;74.20
32600;DHT22;19277;51.778;7.912;2022-11-20T16:43:51;23.00;74.20
32600;DHT22;19277;51.778;7.912;2022-11-20T16:46:21;23.00;74.30
32600;DHT22;19277;51.778;7.912;2022-11-20T16:51:20;23.00;74.40
32600;DHT22;19277;51.778;7.912;2022-11-20T16:53:46;23.10;74.50
32600;DHT22;19277;51.778;7.912;2022-11-20T16:56:16;23.10;74.60
32600;DHT22;19277;51.778;7.912;2022-11-20T16:58:43;23.10;74.50
32600;DHT22;19277;51.778;7.912;2022-11-20T17:01:10;23.00;74.40
32600;DHT22;19277;51.778;7.912;2022-11-20T17:03:40;23.00;74.30
32600;DHT22;19277;51.778;7.912;2022-11-20T17:06:22;23.10;74.30
32600;DHT22;19277;51.778;7.912;2022-11-20T17:08:48;23.10;74.20
32600;DHT22;19277;51.778;7.912;2022-11-20T17:11:17;23.00;74.10
32600;DHT22;19277;51.778;7.912;2022-11-20T17:13:43;23.00;74.60
32600;DHT22;19277;51.778;7.912;2022-11-20T17:16:11;23.00;74.00
32600;DHT22;19277;51.778;7.912;2022-11-20T17:18:37;23.00;73.90
32600;DHT22;19277;51.778;7.912;2022-11-20T17:21:03;23.00;73.90
32600;DHT22;19277;51.778;7.912;2022-11-20T17:23:34;23.00;73.90
32600;DHT22;19277;51.778;7.912;2022-11-20T17:26:04;23.00;73.80
32600;DHT22;19277;51.778;7.912;2022-11-20T17:28:30;23.00;73.80
32600;DHT22;19277;51.778;7.912;2022-11-20T17:31:05;23.00;74.20